Fulton County Airport Brown Field
KFTY : now visible

Airfield :











YOU CAN JOIN US ON...

 
LOGIN :

Register | Disclaimer

   EN    FR    IT 

 









Legend :    VFR   Marginal VFR   IFR   Intensive IFR   Very Intensive IFR
Visi :
Ceiling :
>= 8 km
>= 3000ft
5 to 8 km
1000 to 3000 ft
1500m to 5 km
500 to 1000 ft
800 to 1500m
200 to 500 ft
< 800m
< 200 ft
Symbols :   Thunderstorms  Fog  Heavy snow  Heavy precipitations  Wind > 20 kt







- Airport Elevation : 841 ft


KFTY - Fulton County Brown Field

CURRENT METAR :
  • 210625Z 00000KT 10SM BKN005 23/22 A3004 RMK AO2 T02280217

EXPIRED METARs :
  • 210615Z 25003KT 10SM SCT005 22/21 A3004 RMK AO2 T02220211
  • 210553Z 00000KT 10SM CLR 23/21 A3004 RMK AO2 SLP161 60000 T02280211 10261 20222 58010
  • 210453Z 00000KT 10SM CLR 23/22 A3007 RMK AO2 SLP172 T02280217 403170222
  • 210353Z 00000KT 10SM CLR 23/22 A3006 RMK AO2 SLP171 T02330217

TAF KFTY
Valid from the 21 at 06:00 until the 22 at 06:00 UTC


210541Z 2106/2206 00000KT P6SM SCT100 BKN200
FM211000 00000KT P6SM SCT008 BKN100
TEMPO 2110/2112 6SM BR BKN008
FM211400 24005KT P6SM SCT025
FM211800 24006KT P6SM VCSH SCT045
FM220200 00000KT P6SM SCT150
KZTL FIR / North America



MET'MAP, your aeronautical weather chart ! - Copyright ORBIFLY December 2007 - Disclaimer

ORBIFLY MET'MAP TEAM :

Programming & Development : Alexandra Zaïnal
Concept & Development : Baudouin d'Aumeries
Co-Development & Prog : Marc-Olivier Méhu
Technical & hardware support : Manuel Goepfert

Contact : metmap@orbifly.com




SOURCES & CREDITS :

   NOAA       Earth
Advisory